sensor_id;sensor_type;location;lat;lon;timestamp;P1;durP1;ratioP1;P2;durP2;ratioP2
10542;SDS011;5320;50.046;10.314;2022-07-03T00:00:16;2.80;;;2.70;;
10542;SDS011;5320;50.046;10.314;2022-07-03T00:02:42;2.80;;;2.70;;
10542;SDS011;5320;50.046;10.314;2022-07-03T00:05:08;2.90;;;2.70;;
10542;SDS011;5320;50.046;10.314;2022-07-03T00:07:36;2.63;;;2.50;;
10542;SDS011;5320;50.046;10.314;2022-07-03T00:10:03;3.08;;;2.88;;
10542;SDS011;5320;50.046;10.314;2022-07-03T00:12:30;3.50;;;2.90;;
10542;SDS011;5320;50.046;10.314;2022-07-03T00:14:56;2.67;;;2.58;;
10542;SDS011;5320;50.046;10.314;2022-07-03T00:17:22;2.65;;;2.45;;
10542;SDS011;5320;50.046;10.314;2022-07-03T00:19:48;4.63;;;2.70;;
10542;SDS011;5320;50.046;10.314;2022-07-03T00:22:14;4.57;;;2.50;;
10542;SDS011;5320;50.046;10.314;2022-07-03T00:24:42;2.95;;;2.70;;
10542;SDS011;5320;50.046;10.314;2022-07-03T00:27:10;2.92;;;2.72;;
10542;SDS011;5320;50.046;10.314;2022-07-03T00:29:37;2.75;;;2.60;;
10542;SDS011;5320;50.046;10.314;2022-07-03T00:32:06;2.80;;;2.60;;
10542;SDS011;5320;50.046;10.314;2022-07-03T00:34:34;2.80;;;2.70;;
10542;SDS011;5320;50.046;10.314;2022-07-03T00:37:01;2.60;;;2.50;;
10542;SDS011;5320;50.046;10.314;2022-07-03T00:39:28;2.88;;;2.67;;
10542;SDS011;5320;50.046;10.314;2022-07-03T00:41:59;2.75;;;2.55;;
10542;SDS011;5320;50.046;10.314;2022-07-03T00:44:26;2.53;;;2.40;;
10542;SDS011;5320;50.046;10.314;2022-07-03T00:46:54;2.95;;;2.75;;
10542;SDS011;5320;50.046;10.314;2022-07-03T00:49:24;2.80;;;2.60;;
10542;SDS011;5320;50.046;10.314;2022-07-03T00:51:51;2.70;;;2.50;;
10542;SDS011;5320;50.046;10.314;2022-07-03T00:54:21;2.53;;;2.43;;
10542;SDS011;5320;50.046;10.314;2022-07-03T00:56:51;2.75;;;2.60;;
10542;SDS011;5320;50.046;10.314;2022-07-03T00:59:19;2.83;;;2.63;;
10542;SDS011;5320;50.046;10.314;2022-07-03T01:01:45;3.05;;;2.42;;
10542;SDS011;5320;50.046;10.314;2022-07-03T01:04:21;2.63;;;2.50;;
10542;SDS011;5320;50.046;10.314;2022-07-03T01:07:05;2.87;;;2.67;;
10542;SDS011;5320;50.046;10.314;2022-07-03T01:12:17;2.50;;;2.30;;
10542;SDS011;5320;50.046;10.314;2022-07-03T01:15:11;2.50;;;2.30;;
10542;SDS011;5320;50.046;10.314;2022-07-03T01:17:44;2.90;;;2.17;;
10542;SDS011;5320;50.046;10.314;2022-07-03T01:20:22;2.20;;;2.10;;
10542;SDS011;5320;50.046;10.314;2022-07-03T01:23:00;2.40;;;2.20;;
10542;SDS011;5320;50.046;10.314;2022-07-03T01:28:05;2.10;;;2.00;;
10542;SDS011;5320;50.046;10.314;2022-07-03T01:30:37;2.30;;;2.10;;
10542;SDS011;5320;50.046;10.314;2022-07-03T01:33:09;2.47;;;2.30;;
10542;SDS011;5320;50.046;10.314;2022-07-03T01:35:41;2.33;;;2.10;;
10542;SDS011;5320;50.046;10.314;2022-07-03T01:38:12;2.20;;;2.10;;
10542;SDS011;5320;50.046;10.314;2022-07-03T01:40:39;2.20;;;2.00;;
10542;SDS011;5320;50.046;10.314;2022-07-03T01:43:10;2.27;;;2.17;;
10542;SDS011;5320;50.046;10.314;2022-07-03T01:45:46;2.05;;;1.95;;
10542;SDS011;5320;50.046;10.314;2022-07-03T01:48:13;1.83;;;1.83;;
10542;SDS011;5320;50.046;10.314;2022-07-03T01:50:40;1.98;;;1.88;;
10542;SDS011;5320;50.046;10.314;2022-07-03T01:53:08;2.03;;;1.93;;
10542;SDS011;5320;50.046;10.314;2022-07-03T01:55:35;2.23;;;2.13;;
10542;SDS011;5320;50.046;10.314;2022-07-03T01:58:04;2.95;;;2.10;;
10542;SDS011;5320;50.046;10.314;2022-07-03T02:00:30;2.10;;;2.00;;
10542;SDS011;5320;50.046;10.314;2022-07-03T02:03:01;2.00;;;1.90;;
10542;SDS011;5320;50.046;10.314;2022-07-03T02:05:30;2.38;;;2.17;;
10542;SDS011;5320;50.046;10.314;2022-07-03T02:10:29;2.57;;;2.37;;
10542;SDS011;5320;50.046;10.314;2022-07-03T02:13:14;2.58;;;2.38;;
10542;SDS011;5320;50.046;10.314;2022-07-03T02:15:43;2.40;;;2.30;;
10542;SDS011;5320;50.046;10.314;2022-07-03T02:18:11;2.50;;;2.30;;
10542;SDS011;5320;50.046;10.314;2022-07-03T02:20:51;2.87;;;2.13;;
10542;SDS011;5320;50.046;10.314;2022-07-03T02:23:25;2.30;;;2.10;;
10542;SDS011;5320;50.046;10.314;2022-07-03T02:25:55;2.40;;;2.30;;
10542;SDS011;5320;50.046;10.314;2022-07-03T02:28:29;2.30;;;2.20;;
10542;SDS011;5320;50.046;10.314;2022-07-03T02:31:14;2.47;;;2.37;;
10542;SDS011;5320;50.046;10.314;2022-07-03T02:33:43;2.30;;;2.20;;
10542;SDS011;5320;50.046;10.314;2022-07-03T02:36:12;2.60;;;2.40;;
10542;SDS011;5320;50.046;10.314;2022-07-03T02:38:42;2.67;;;2.30;;
10542;SDS011;5320;50.046;10.314;2022-07-03T02:41:14;2.33;;;2.17;;
10542;SDS011;5320;50.046;10.314;2022-07-03T02:46:37;2.60;;;2.50;;
10542;SDS011;5320;50.046;10.314;2022-07-03T02:54:49;2.63;;;2.43;;
10542;SDS011;5320;50.046;10.314;2022-07-03T02:57:17;3.57;;;2.50;;
10542;SDS011;5320;50.046;10.314;2022-07-03T03:10:39;2.70;;;2.50;;
10542;SDS011;5320;50.046;10.314;2022-07-03T03:13:06;2.93;;;2.80;;
10542;SDS011;5320;50.046;10.314;2022-07-03T03:15:37;2.67;;;2.53;;
10542;SDS011;5320;50.046;10.314;2022-07-03T03:18:11;2.50;;;2.30;;
10542;SDS011;5320;50.046;10.314;2022-07-03T03:20:41;2.83;;;2.40;;
10542;SDS011;5320;50.046;10.314;2022-07-03T03:23:16;2.73;;;2.53;;
10542;SDS011;5320;50.046;10.314;2022-07-03T03:25:53;2.60;;;2.50;;
10542;SDS011;5320;50.046;10.314;2022-07-03T03:28:19;2.97;;;2.80;;
10542;SDS011;5320;50.046;10.314;2022-07-03T03:30:45;2.80;;;2.60;;
10542;SDS011;5320;50.046;10.314;2022-07-03T03:33:10;2.60;;;2.50;;
10542;SDS011;5320;50.046;10.314;2022-07-03T03:35:38;3.67;;;2.57;;
10542;SDS011;5320;50.046;10.314;2022-07-03T03:38:04;3.30;;;2.53;;
10542;SDS011;5320;50.046;10.314;2022-07-03T03:40:31;3.10;;;2.80;;
10542;SDS011;5320;50.046;10.314;2022-07-03T03:42:58;2.60;;;2.40;;
10542;SDS011;5320;50.046;10.314;2022-07-03T03:45:26;2.60;;;2.50;;
10542;SDS011;5320;50.046;10.314;2022-07-03T03:47:52;2.60;;;2.50;;
10542;SDS011;5320;50.046;10.314;2022-07-03T03:50:18;2.60;;;2.50;;
10542;SDS011;5320;50.046;10.314;2022-07-03T03:52:44;2.97;;;2.73;;
10542;SDS011;5320;50.046;10.314;2022-07-03T03:55:10;2.80;;;2.60;;
10542;SDS011;5320;50.046;10.314;2022-07-03T03:57:36;2.97;;;2.73;;
10542;SDS011;5320;50.046;10.314;2022-07-03T04:00:03;2.90;;;2.60;;
10542;SDS011;5320;50.046;10.314;2022-07-03T04:02:30;2.90;;;2.70;;
10542;SDS011;5320;50.046;10.314;2022-07-03T04:04:57;2.80;;;2.70;;
10542;SDS011;5320;50.046;10.314;2022-07-03T04:07:24;2.90;;;2.70;;
10542;SDS011;5320;50.046;10.314;2022-07-03T04:09:49;3.20;;;2.90;;
10542;SDS011;5320;50.046;10.314;2022-07-03T04:12:15;2.90;;;2.70;;
10542;SDS011;5320;50.046;10.314;2022-07-03T04:14:41;3.13;;;2.80;;
10542;SDS011;5320;50.046;10.314;2022-07-03T04:17:07;2.67;;;2.57;;
10542;SDS011;5320;50.046;10.314;2022-07-03T04:19:33;2.77;;;2.57;;
10542;SDS011;5320;50.046;10.314;2022-07-03T04:21:59;3.13;;;2.93;;
10542;SDS011;5320;50.046;10.314;2022-07-03T04:24:25;3.13;;;2.93;;
10542;SDS011;5320;50.046;10.314;2022-07-03T04:26:51;3.20;;;2.90;;
10542;SDS011;5320;50.046;10.314;2022-07-03T04:29:17;2.87;;;2.67;;
10542;SDS011;5320;50.046;10.314;2022-07-03T04:31:42;2.80;;;2.70;;
10542;SDS011;5320;50.046;10.314;2022-07-03T04:34:08;3.00;;;2.83;;
10542;SDS011;5320;50.046;10.314;2022-07-03T04:36:34;3.00;;;2.80;;
10542;SDS011;5320;50.046;10.314;2022-07-03T04:39:00;3.20;;;3.00;;
10542;SDS011;5320;50.046;10.314;2022-07-03T04:41:25;3.30;;;3.20;;
10542;SDS011;5320;50.046;10.314;2022-07-03T04:43:51;3.43;;;3.10;;
10542;SDS011;5320;50.046;10.314;2022-07-03T04:46:17;3.00;;;2.80;;
10542;SDS011;5320;50.046;10.314;2022-07-03T04:48:43;3.57;;;2.90;;
10542;SDS011;5320;50.046;10.314;2022-07-03T04:51:08;2.50;;;2.40;;
10542;SDS011;5320;50.046;10.314;2022-07-03T04:53:36;2.90;;;2.70;;
10542;SDS011;5320;50.046;10.314;2022-07-03T04:56:02;3.07;;;2.83;;
10542;SDS011;5320;50.046;10.314;2022-07-03T04:58:29;3.10;;;2.90;;
10542;SDS011;5320;50.046;10.314;2022-07-03T05:00:55;3.00;;;2.80;;
10542;SDS011;5320;50.046;10.314;2022-07-03T05:03:22;2.83;;;2.63;;
10542;SDS011;5320;50.046;10.314;2022-07-03T05:05:48;3.20;;;3.00;;
10542;SDS011;5320;50.046;10.314;2022-07-03T05:08:13;3.00;;;2.80;;
10542;SDS011;5320;50.046;10.314;2022-07-03T05:10:39;3.80;;;3.07;;
10542;SDS011;5320;50.046;10.314;2022-07-03T05:13:05;3.40;;;3.20;;
10542;SDS011;5320;50.046;10.314;2022-07-03T05:15:30;3.10;;;2.90;;
10542;SDS011;5320;50.046;10.314;2022-07-03T05:17:56;3.20;;;2.90;;
10542;SDS011;5320;50.046;10.314;2022-07-03T05:20:22;3.40;;;3.10;;
10542;SDS011;5320;50.046;10.314;2022-07-03T05:22:57;3.37;;;3.07;;
10542;SDS011;5320;50.046;10.314;2022-07-03T05:25:24;4.20;;;3.23;;
10542;SDS011;5320;50.046;10.314;2022-07-03T05:27:51;2.90;;;2.80;;
10542;SDS011;5320;50.046;10.314;2022-07-03T05:30:21;3.30;;;3.03;;
10542;SDS011;5320;50.046;10.314;2022-07-03T05:32:48;3.22;;;3.03;;
10542;SDS011;5320;50.046;10.314;2022-07-03T05:35:15;2.90;;;2.72;;
10542;SDS011;5320;50.046;10.314;2022-07-03T05:37:41;2.70;;;2.60;;
10542;SDS011;5320;50.046;10.314;2022-07-03T05:40:08;3.30;;;2.80;;
10542;SDS011;5320;50.046;10.314;2022-07-03T05:42:35;3.00;;;2.80;;
10542;SDS011;5320;50.046;10.314;2022-07-03T05:45:00;3.03;;;2.83;;
10542;SDS011;5320;50.046;10.314;2022-07-03T05:47:27;2.97;;;2.78;;
10542;SDS011;5320;50.046;10.314;2022-07-03T05:49:53;3.05;;;2.85;;
10542;SDS011;5320;50.046;10.314;2022-07-03T05:52:19;3.58;;;2.90;;
10542;SDS011;5320;50.046;10.314;2022-07-03T05:54:45;2.90;;;2.80;;
10542;SDS011;5320;50.046;10.314;2022-07-03T05:57:11;2.97;;;2.80;;
10542;SDS011;5320;50.046;10.314;2022-07-03T05:59:37;3.72;;;2.88;;
10542;SDS011;5320;50.046;10.314;2022-07-03T06:02:04;2.80;;;2.60;;
10542;SDS011;5320;50.046;10.314;2022-07-03T06:04:30;2.80;;;2.70;;
10542;SDS011;5320;50.046;10.314;2022-07-03T06:06:56;2.90;;;2.75;;
10542;SDS011;5320;50.046;10.314;2022-07-03T06:09:22;2.90;;;2.65;;
10542;SDS011;5320;50.046;10.314;2022-07-03T06:11:48;2.60;;;2.50;;
10542;SDS011;5320;50.046;10.314;2022-07-03T06:14:14;3.50;;;3.30;;
10542;SDS011;5320;50.046;10.314;2022-07-03T06:16:40;3.22;;;2.97;;
10542;SDS011;5320;50.046;10.314;2022-07-03T06:19:06;2.88;;;2.67;;
10542;SDS011;5320;50.046;10.314;2022-07-03T06:21:32;2.90;;;2.70;;
10542;SDS011;5320;50.046;10.314;2022-07-03T06:23:58;3.20;;;3.00;;
10542;SDS011;5320;50.046;10.314;2022-07-03T06:26:25;2.80;;;2.60;;
10542;SDS011;5320;50.046;10.314;2022-07-03T06:28:51;2.75;;;2.65;;
10542;SDS011;5320;50.046;10.314;2022-07-03T06:31:17;2.67;;;2.55;;
10542;SDS011;5320;50.046;10.314;2022-07-03T06:33:43;2.35;;;2.25;;
10542;SDS011;5320;50.046;10.314;2022-07-03T06:36:09;2.58;;;2.38;;
10542;SDS011;5320;50.046;10.314;2022-07-03T06:38:35;2.58;;;2.40;;
10542;SDS011;5320;50.046;10.314;2022-07-03T06:41:00;2.60;;;2.40;;
10542;SDS011;5320;50.046;10.314;2022-07-03T06:43:26;2.60;;;2.40;;
10542;SDS011;5320;50.046;10.314;2022-07-03T06:45:52;2.72;;;2.42;;
10542;SDS011;5320;50.046;10.314;2022-07-03T06:48:18;2.72;;;2.28;;
10542;SDS011;5320;50.046;10.314;2022-07-03T06:50:45;2.40;;;2.30;;
10542;SDS011;5320;50.046;10.314;2022-07-03T06:53:12;2.88;;;2.67;;
10542;SDS011;5320;50.046;10.314;2022-07-03T06:55:37;2.90;;;2.67;;
10542;SDS011;5320;50.046;10.314;2022-07-03T06:58:03;2.53;;;2.33;;
10542;SDS011;5320;50.046;10.314;2022-07-03T07:00:29;2.47;;;2.38;;
10542;SDS011;5320;50.046;10.314;2022-07-03T07:02:55;2.40;;;2.30;;
10542;SDS011;5320;50.046;10.314;2022-07-03T07:05:21;2.50;;;2.40;;
10542;SDS011;5320;50.046;10.314;2022-07-03T07:07:47;2.50;;;2.40;;
10542;SDS011;5320;50.046;10.314;2022-07-03T07:10:14;3.47;;;2.63;;
10542;SDS011;5320;50.046;10.314;2022-07-03T07:12:39;2.63;;;2.45;;
10542;SDS011;5320;50.046;10.314;2022-07-03T07:15:05;2.63;;;2.40;;
10542;SDS011;5320;50.046;10.314;2022-07-03T07:17:32;2.50;;;2.30;;
10542;SDS011;5320;50.046;10.314;2022-07-03T07:19:57;2.40;;;2.30;;
10542;SDS011;5320;50.046;10.314;2022-07-03T07:22:23;2.60;;;2.40;;
10542;SDS011;5320;50.046;10.314;2022-07-03T07:24:50;2.38;;;2.28;;
10542;SDS011;5320;50.046;10.314;2022-07-03T07:27:17;2.60;;;2.40;;
10542;SDS011;5320;50.046;10.314;2022-07-03T07:29:43;3.30;;;2.40;;
10542;SDS011;5320;50.046;10.314;2022-07-03T07:32:09;3.30;;;2.25;;
10542;SDS011;5320;50.046;10.314;2022-07-03T07:34:35;2.35;;;2.15;;
10542;SDS011;5320;50.046;10.314;2022-07-03T07:37:00;2.10;;;2.00;;
10542;SDS011;5320;50.046;10.314;2022-07-03T07:39:26;2.15;;;2.05;;
10542;SDS011;5320;50.046;10.314;2022-07-03T07:41:52;2.58;;;2.35;;
10542;SDS011;5320;50.046;10.314;2022-07-03T07:44:18;3.03;;;2.05;;
10542;SDS011;5320;50.046;10.314;2022-07-03T07:46:44;2.42;;;2.03;;
10542;SDS011;5320;50.046;10.314;2022-07-03T07:49:09;2.45;;;2.17;;
10542;SDS011;5320;50.046;10.314;2022-07-03T07:51:35;2.17;;;2.08;;
10542;SDS011;5320;50.046;10.314;2022-07-03T07:54:01;2.10;;;2.00;;
10542;SDS011;5320;50.046;10.314;2022-07-03T07:56:27;2.30;;;2.20;;
10542;SDS011;5320;50.046;10.314;2022-07-03T07:58:53;3.47;;;2.05;;
10542;SDS011;5320;50.046;10.314;2022-07-03T08:01:18;2.47;;;2.28;;
10542;SDS011;5320;50.046;10.314;2022-07-03T08:04:03;2.47;;;2.38;;
10542;SDS011;5320;50.046;10.314;2022-07-03T08:06:48;2.20;;;2.10;;
10542;SDS011;5320;50.046;10.314;2022-07-03T08:09:14;2.45;;;2.30;;
10542;SDS011;5320;50.046;10.314;2022-07-03T08:11:39;4.20;;;2.15;;
10542;SDS011;5320;50.046;10.314;2022-07-03T08:14:05;2.45;;;2.20;;
10542;SDS011;5320;50.046;10.314;2022-07-03T08:16:33;2.20;;;2.00;;
10542;SDS011;5320;50.046;10.314;2022-07-03T08:18:59;2.78;;;2.25;;
10542;SDS011;5320;50.046;10.314;2022-07-03T08:21:25;2.40;;;2.20;;
10542;SDS011;5320;50.046;10.314;2022-07-03T08:23:51;2.40;;;2.30;;
10542;SDS011;5320;50.046;10.314;2022-07-03T08:26:17;2.25;;;2.13;;
10542;SDS011;5320;50.046;10.314;2022-07-03T08:28:43;2.50;;;2.40;;
10542;SDS011;5320;50.046;10.314;2022-07-03T08:31:08;2.85;;;2.30;;
10542;SDS011;5320;50.046;10.314;2022-07-03T08:33:35;2.38;;;2.20;;
10542;SDS011;5320;50.046;10.314;2022-07-03T08:36:01;2.20;;;2.10;;
10542;SDS011;5320;50.046;10.314;2022-07-03T08:38:29;3.17;;;2.20;;
10542;SDS011;5320;50.046;10.314;2022-07-03T08:40:59;3.00;;;2.08;;
10542;SDS011;5320;50.046;10.314;2022-07-03T08:43:25;2.40;;;2.20;;
10542;SDS011;5320;50.046;10.314;2022-07-03T08:45:52;2.30;;;2.10;;
10542;SDS011;5320;50.046;10.314;2022-07-03T08:48:20;2.42;;;2.22;;
10542;SDS011;5320;50.046;10.314;2022-07-03T08:50:47;2.58;;;2.22;;
10542;SDS011;5320;50.046;10.314;2022-07-03T08:53:16;2.17;;;2.00;;
10542;SDS011;5320;50.046;10.314;2022-07-03T08:55:42;2.55;;;2.30;;
10542;SDS011;5320;50.046;10.314;2022-07-03T08:58:09;2.00;;;1.90;;
10542;SDS011;5320;50.046;10.314;2022-07-03T09:00:37;2.20;;;2.10;;
10542;SDS011;5320;50.046;10.314;2022-07-03T09:03:04;2.17;;;2.05;;
10542;SDS011;5320;50.046;10.314;2022-07-03T09:05:35;3.38;;;2.28;;
10542;SDS011;5320;50.046;10.314;2022-07-03T09:08:01;2.28;;;1.80;;
10542;SDS011;5320;50.046;10.314;2022-07-03T09:10:28;3.40;;;2.10;;
10542;SDS011;5320;50.046;10.314;2022-07-03T09:12:54;2.42;;;2.22;;
10542;SDS011;5320;50.046;10.314;2022-07-03T09:15:20;4.72;;;2.05;;
10542;SDS011;5320;50.046;10.314;2022-07-03T09:17:57;2.45;;;2.00;;
10542;SDS011;5320;50.046;10.314;2022-07-03T09:20:31;2.00;;;1.85;;
10542;SDS011;5320;50.046;10.314;2022-07-03T09:23:14;1.90;;;1.80;;
10542;SDS011;5320;50.046;10.314;2022-07-03T09:25:51;2.80;;;1.67;;
10542;SDS011;5320;50.046;10.314;2022-07-03T09:28:19;1.90;;;1.80;;
10542;SDS011;5320;50.046;10.314;2022-07-03T09:30:55;1.80;;;1.70;;
10542;SDS011;5320;50.046;10.314;2022-07-03T09:33:22;1.88;;;1.70;;
10542;SDS011;5320;50.046;10.314;2022-07-03T09:35:52;3.35;;;1.80;;
10542;SDS011;5320;50.046;10.314;2022-07-03T09:38:19;2.88;;;1.83;;
10542;SDS011;5320;50.046;10.314;2022-07-03T09:40:49;2.00;;;1.90;;
10542;SDS011;5320;50.046;10.314;2022-07-03T09:43:23;2.45;;;2.00;;
10542;SDS011;5320;50.046;10.314;2022-07-03T09:46:00;2.13;;;2.03;;
10542;SDS011;5320;50.046;10.314;2022-07-03T09:48:30;1.80;;;1.70;;
10542;SDS011;5320;50.046;10.314;2022-07-03T09:56:27;1.73;;;1.63;;
10542;SDS011;5320;50.046;10.314;2022-07-03T09:58:58;1.70;;;1.60;;
10542;SDS011;5320;50.046;10.314;2022-07-03T10:01:33;1.80;;;1.70;;
10542;SDS011;5320;50.046;10.314;2022-07-03T10:04:19;2.78;;;1.77;;
10542;SDS011;5320;50.046;10.314;2022-07-03T10:09:22;1.70;;;1.70;;
10542;SDS011;5320;50.046;10.314;2022-07-03T10:11:51;2.00;;;1.88;;
10542;SDS011;5320;50.046;10.314;2022-07-03T10:14:18;1.67;;;1.67;;
10542;SDS011;5320;50.046;10.314;2022-07-03T10:16:45;2.03;;;1.80;;
10542;SDS011;5320;50.046;10.314;2022-07-03T10:19:13;2.05;;;1.70;;
10542;SDS011;5320;50.046;10.314;2022-07-03T10:21:39;1.98;;;1.80;;
10542;SDS011;5320;50.046;10.314;2022-07-03T10:24:07;1.98;;;1.83;;
10542;SDS011;5320;50.046;10.314;2022-07-03T10:26:35;1.60;;;1.50;;
10542;SDS011;5320;50.046;10.314;2022-07-03T10:29:01;3.70;;;1.60;;
10542;SDS011;5320;50.046;10.314;2022-07-03T10:31:27;1.30;;;1.30;;
10542;SDS011;5320;50.046;10.314;2022-07-03T10:33:54;1.63;;;1.45;;
10542;SDS011;5320;50.046;10.314;2022-07-03T10:36:22;2.08;;;1.88;;
10542;SDS011;5320;50.046;10.314;2022-07-03T10:38:48;1.45;;;1.45;;
10542;SDS011;5320;50.046;10.314;2022-07-03T10:41:19;1.77;;;1.40;;
10542;SDS011;5320;50.046;10.314;2022-07-03T10:44:09;2.20;;;2.08;;
10542;SDS011;5320;50.046;10.314;2022-07-03T10:46:57;2.22;;;1.98;;
10542;SDS011;5320;50.046;10.314;2022-07-03T10:49:22;1.25;;;1.25;;
10542;SDS011;5320;50.046;10.314;2022-07-03T10:51:55;1.50;;;1.40;;
10542;SDS011;5320;50.046;10.314;2022-07-03T10:57:04;1.50;;;1.42;;
10542;SDS011;5320;50.046;10.314;2022-07-03T11:02:23;2.97;;;1.40;;
10542;SDS011;5320;50.046;10.314;2022-07-03T11:05:03;1.40;;;1.40;;
10542;SDS011;5320;50.046;10.314;2022-07-03T11:15:46;1.70;;;1.60;;
10542;SDS011;5320;50.046;10.314;2022-07-03T11:18:14;1.33;;;1.33;;
10542;SDS011;5320;50.046;10.314;2022-07-03T11:25:51;1.70;;;1.60;;
10542;SDS011;5320;50.046;10.314;2022-07-03T11:36:09;1.90;;;1.50;;
10542;SDS011;5320;50.046;10.314;2022-07-03T11:41:28;1.80;;;1.67;;
10542;SDS011;5320;50.046;10.314;2022-07-03T11:43:59;1.55;;;1.55;;
10542;SDS011;5320;50.046;10.314;2022-07-03T11:46:31;1.58;;;1.50;;
10542;SDS011;5320;50.046;10.314;2022-07-03T11:49:06;1.50;;;1.45;;
10542;SDS011;5320;50.046;10.314;2022-07-03T11:51:33;1.73;;;1.60;;
10542;SDS011;5320;50.046;10.314;2022-07-03T11:54:00;1.75;;;1.55;;
10542;SDS011;5320;50.046;10.314;2022-07-03T11:56:27;1.30;;;1.30;;
10542;SDS011;5320;50.046;10.314;2022-07-03T11:58:57;1.73;;;1.63;;
10542;SDS011;5320;50.046;10.314;2022-07-03T12:12:05;1.67;;;1.60;;
10542;SDS011;5320;50.046;10.314;2022-07-03T12:14:40;1.55;;;1.45;;
10542;SDS011;5320;50.046;10.314;2022-07-03T12:17:10;1.60;;;1.50;;
10542;SDS011;5320;50.046;10.314;2022-07-03T12:19:50;1.55;;;1.55;;
10542;SDS011;5320;50.046;10.314;2022-07-03T12:22:24;1.65;;;1.55;;
10542;SDS011;5320;50.046;10.314;2022-07-03T12:27:33;1.75;;;1.60;;
10542;SDS011;5320;50.046;10.314;2022-07-03T12:30:04;1.63;;;1.52;;
10542;SDS011;5320;50.046;10.314;2022-07-03T12:32:31;2.00;;;1.55;;
10542;SDS011;5320;50.046;10.314;2022-07-03T12:34:57;1.70;;;1.60;;
10542;SDS011;5320;50.046;10.314;2022-07-03T12:37:30;1.77;;;1.60;;
10542;SDS011;5320;50.046;10.314;2022-07-03T12:40:00;2.42;;;1.70;;
10542;SDS011;5320;50.046;10.314;2022-07-03T12:42:26;1.67;;;1.60;;
10542;SDS011;5320;50.046;10.314;2022-07-03T12:44:59;1.90;;;1.80;;
10542;SDS011;5320;50.046;10.314;2022-07-03T12:47:29;1.50;;;1.50;;
10542;SDS011;5320;50.046;10.314;2022-07-03T12:49:56;1.73;;;1.73;;
10542;SDS011;5320;50.046;10.314;2022-07-03T12:52:32;1.65;;;1.65;;
10542;SDS011;5320;50.046;10.314;2022-07-03T12:55:01;1.80;;;1.80;;
10542;SDS011;5320;50.046;10.314;2022-07-03T12:57:27;1.70;;;1.60;;
10542;SDS011;5320;50.046;10.314;2022-07-03T13:00:15;1.80;;;1.70;;
10542;SDS011;5320;50.046;10.314;2022-07-03T13:02:43;1.85;;;1.75;;
10542;SDS011;5320;50.046;10.314;2022-07-03T13:07:48;1.58;;;1.58;;
10542;SDS011;5320;50.046;10.314;2022-07-03T13:10:20;1.67;;;1.67;;
10542;SDS011;5320;50.046;10.314;2022-07-03T13:15:13;1.80;;;1.70;;
10542;SDS011;5320;50.046;10.314;2022-07-03T13:20:21;1.58;;;1.58;;
10542;SDS011;5320;50.046;10.314;2022-07-03T13:22:51;1.80;;;1.70;;
10542;SDS011;5320;50.046;10.314;2022-07-03T13:25:18;1.77;;;1.65;;
10542;SDS011;5320;50.046;10.314;2022-07-03T13:27:44;1.70;;;1.60;;
10542;SDS011;5320;50.046;10.314;2022-07-03T13:30:20;1.90;;;1.60;;
10542;SDS011;5320;50.046;10.314;2022-07-03T13:32:45;1.60;;;1.50;;
10542;SDS011;5320;50.046;10.314;2022-07-03T13:35:11;1.35;;;1.35;;
10542;SDS011;5320;50.046;10.314;2022-07-03T13:37:37;1.80;;;1.70;;
10542;SDS011;5320;50.046;10.314;2022-07-03T13:40:04;1.90;;;1.80;;
10542;SDS011;5320;50.046;10.314;2022-07-03T13:42:30;1.65;;;1.55;;
10542;SDS011;5320;50.046;10.314;2022-07-03T13:44:57;1.60;;;1.40;;
10542;SDS011;5320;50.046;10.314;2022-07-03T13:47:23;1.60;;;1.50;;
10542;SDS011;5320;50.046;10.314;2022-07-03T13:49:49;1.40;;;1.40;;
10542;SDS011;5320;50.046;10.314;2022-07-03T13:52:14;1.50;;;1.50;;
10542;SDS011;5320;50.046;10.314;2022-07-03T13:54:40;1.45;;;1.35;;
10542;SDS011;5320;50.046;10.314;2022-07-03T13:57:06;1.50;;;1.50;;
10542;SDS011;5320;50.046;10.314;2022-07-03T13:59:31;1.70;;;1.60;;
10542;SDS011;5320;50.046;10.314;2022-07-03T14:01:57;1.67;;;1.58;;
10542;SDS011;5320;50.046;10.314;2022-07-03T14:04:23;1.70;;;1.60;;
10542;SDS011;5320;50.046;10.314;2022-07-03T14:06:50;1.35;;;1.35;;
10542;SDS011;5320;50.046;10.314;2022-07-03T14:09:16;1.67;;;1.58;;
10542;SDS011;5320;50.046;10.314;2022-07-03T14:11:42;1.35;;;1.35;;
10542;SDS011;5320;50.046;10.314;2022-07-03T14:14:07;3.70;;;1.63;;
10542;SDS011;5320;50.046;10.314;2022-07-03T14:16:33;1.48;;;1.48;;
10542;SDS011;5320;50.046;10.314;2022-07-03T14:18:59;1.30;;;1.30;;
10542;SDS011;5320;50.046;10.314;2022-07-03T14:21:28;1.17;;;1.17;;
10542;SDS011;5320;50.046;10.314;2022-07-03T14:23:54;1.48;;;1.40;;
10542;SDS011;5320;50.046;10.314;2022-07-03T14:26:20;2.22;;;1.40;;
10542;SDS011;5320;50.046;10.314;2022-07-03T14:29:06;1.50;;;1.40;;
10542;SDS011;5320;50.046;10.314;2022-07-03T14:31:52;1.80;;;1.40;;
10542;SDS011;5320;50.046;10.314;2022-07-03T14:34:36;1.50;;;1.40;;
10542;SDS011;5320;50.046;10.314;2022-07-03T14:37:03;1.20;;;1.20;;
10542;SDS011;5320;50.046;10.314;2022-07-03T14:39:29;1.60;;;1.40;;
10542;SDS011;5320;50.046;10.314;2022-07-03T14:41:55;1.40;;;1.30;;
10542;SDS011;5320;50.046;10.314;2022-07-03T14:44:20;1.40;;;1.40;;
10542;SDS011;5320;50.046;10.314;2022-07-03T14:46:52;1.38;;;1.38;;
10542;SDS011;5320;50.046;10.314;2022-07-03T14:49:18;1.50;;;1.40;;
10542;SDS011;5320;50.046;10.314;2022-07-03T14:51:45;2.53;;;1.67;;
10542;SDS011;5320;50.046;10.314;2022-07-03T14:54:11;1.38;;;1.38;;
10542;SDS011;5320;50.046;10.314;2022-07-03T14:56:43;2.03;;;1.50;;
10542;SDS011;5320;50.046;10.314;2022-07-03T15:02:20;1.55;;;1.30;;
10542;SDS011;5320;50.046;10.314;2022-07-03T15:07:42;1.40;;;1.30;;
10542;SDS011;5320;50.046;10.314;2022-07-03T15:10:14;1.95;;;1.30;;
10542;SDS011;5320;50.046;10.314;2022-07-03T15:12:47;1.45;;;1.35;;
10542;SDS011;5320;50.046;10.314;2022-07-03T15:15:15;1.40;;;1.40;;
10542;SDS011;5320;50.046;10.314;2022-07-03T15:17:43;2.20;;;1.60;;
10542;SDS011;5320;50.046;10.314;2022-07-03T15:20:12;1.50;;;1.40;;
10542;SDS011;5320;50.046;10.314;2022-07-03T15:22:42;1.60;;;1.50;;
10542;SDS011;5320;50.046;10.314;2022-07-03T15:25:10;1.35;;;1.35;;
10542;SDS011;5320;50.046;10.314;2022-07-03T15:27:37;1.40;;;1.40;;
10542;SDS011;5320;50.046;10.314;2022-07-03T15:30:04;1.42;;;1.38;;
10542;SDS011;5320;50.046;10.314;2022-07-03T15:32:31;1.75;;;1.00;;
10542;SDS011;5320;50.046;10.314;2022-07-03T15:34:57;1.35;;;1.35;;
10542;SDS011;5320;50.046;10.314;2022-07-03T15:40:30;1.80;;;1.70;;
10542;SDS011;5320;50.046;10.314;2022-07-03T15:46:11;1.35;;;1.33;;
10542;SDS011;5320;50.046;10.314;2022-07-03T15:54:27;1.40;;;1.30;;
10542;SDS011;5320;50.046;10.314;2022-07-03T15:57:11;1.55;;;1.50;;
10542;SDS011;5320;50.046;10.314;2022-07-03T16:00:04;1.40;;;1.40;;
10542;SDS011;5320;50.046;10.314;2022-07-03T16:05:40;3.38;;;1.33;;
10542;SDS011;5320;50.046;10.314;2022-07-03T16:08:06;1.30;;;1.30;;
10542;SDS011;5320;50.046;10.314;2022-07-03T16:10:33;1.30;;;1.30;;
10542;SDS011;5320;50.046;10.314;2022-07-03T16:13:01;1.75;;;1.40;;
10542;SDS011;5320;50.046;10.314;2022-07-03T16:15:33;1.75;;;1.20;;
10542;SDS011;5320;50.046;10.314;2022-07-03T16:18:01;2.85;;;1.30;;
10542;SDS011;5320;50.046;10.314;2022-07-03T16:20:28;1.70;;;1.60;;
10542;SDS011;5320;50.046;10.314;2022-07-03T16:22:59;2.85;;;1.50;;
10542;SDS011;5320;50.046;10.314;2022-07-03T16:25:28;1.52;;;1.50;;
10542;SDS011;5320;50.046;10.314;2022-07-03T16:27:56;2.67;;;1.48;;
10542;SDS011;5320;50.046;10.314;2022-07-03T16:30:22;2.30;;;1.52;;
10542;SDS011;5320;50.046;10.314;2022-07-03T16:32:48;2.60;;;1.50;;
10542;SDS011;5320;50.046;10.314;2022-07-03T16:37:58;3.45;;;1.67;;
10542;SDS011;5320;50.046;10.314;2022-07-03T16:40:27;2.05;;;1.40;;
10542;SDS011;5320;50.046;10.314;2022-07-03T16:42:54;1.63;;;1.52;;
10542;SDS011;5320;50.046;10.314;2022-07-03T16:45:29;1.63;;;1.50;;